sensor_id;sensor_type;location;lat;lon;timestamp;P1;durP1;ratioP1;P2;durP2;ratioP2
4674;SDS011;2351;50.812;12.872;2023-07-31T00:02:03;5.87;;;1.77;;
4674;SDS011;2351;50.812;12.872;2023-07-31T00:04:35;7.30;;;1.77;;
4674;SDS011;2351;50.812;12.872;2023-07-31T00:07:07;7.03;;;2.10;;
4674;SDS011;2351;50.812;12.872;2023-07-31T00:09:40;3.80;;;1.60;;
4674;SDS011;2351;50.812;12.872;2023-07-31T00:12:12;3.43;;;1.93;;
4674;SDS011;2351;50.812;12.872;2023-07-31T00:14:45;3.17;;;2.17;;
4674;SDS011;2351;50.812;12.872;2023-07-31T00:17:17;6.17;;;2.17;;
4674;SDS011;2351;50.812;12.872;2023-07-31T00:19:49;7.00;;;1.60;;
4674;SDS011;2351;50.812;12.872;2023-07-31T00:22:21;5.37;;;1.90;;
4674;SDS011;2351;50.812;12.872;2023-07-31T00:24:53;4.00;;;1.57;;
4674;SDS011;2351;50.812;12.872;2023-07-31T00:27:24;5.97;;;1.70;;
4674;SDS011;2351;50.812;12.872;2023-07-31T00:29:57;2.47;;;1.77;;
4674;SDS011;2351;50.812;12.872;2023-07-31T00:32:29;6.33;;;2.07;;
4674;SDS011;2351;50.812;12.872;2023-07-31T00:35:01;2.97;;;1.60;;
4674;SDS011;2351;50.812;12.872;2023-07-31T00:37:33;6.60;;;1.80;;
4674;SDS011;2351;50.812;12.872;2023-07-31T00:40:05;8.00;;;1.90;;
4674;SDS011;2351;50.812;12.872;2023-07-31T00:42:38;4.00;;;1.63;;
4674;SDS011;2351;50.812;12.872;2023-07-31T00:45:11;2.67;;;1.90;;
4674;SDS011;2351;50.812;12.872;2023-07-31T00:47:42;3.20;;;1.70;;
4674;SDS011;2351;50.812;12.872;2023-07-31T00:50:14;3.87;;;2.10;;
4674;SDS011;2351;50.812;12.872;2023-07-31T00:52:46;3.30;;;2.20;;
4674;SDS011;2351;50.812;12.872;2023-07-31T00:55:18;3.87;;;1.70;;
4674;SDS011;2351;50.812;12.872;2023-07-31T00:57:51;8.33;;;1.53;;
4674;SDS011;2351;50.812;12.872;2023-07-31T01:00:27;5.13;;;1.90;;
4674;SDS011;2351;50.812;12.872;2023-07-31T01:02:58;3.27;;;1.90;;
4674;SDS011;2351;50.812;12.872;2023-07-31T01:05:33;3.47;;;1.90;;
4674;SDS011;2351;50.812;12.872;2023-07-31T01:08:15;4.30;;;1.90;;
4674;SDS011;2351;50.812;12.872;2023-07-31T01:10:54;4.07;;;1.60;;
4674;SDS011;2351;50.812;12.872;2023-07-31T01:13:38;4.40;;;1.50;;
4674;SDS011;2351;50.812;12.872;2023-07-31T01:16:12;3.30;;;2.80;;
4674;SDS011;2351;50.812;12.872;2023-07-31T01:18:43;4.10;;;1.57;;
4674;SDS011;2351;50.812;12.872;2023-07-31T01:24:17;6.23;;;2.13;;
4674;SDS011;2351;50.812;12.872;2023-07-31T01:26:55;6.20;;;2.00;;
4674;SDS011;2351;50.812;12.872;2023-07-31T01:29:32;3.23;;;1.77;;
4674;SDS011;2351;50.812;12.872;2023-07-31T01:32:09;1.87;;;1.50;;
4674;SDS011;2351;50.812;12.872;2023-07-31T01:34:42;3.93;;;1.77;;
4674;SDS011;2351;50.812;12.872;2023-07-31T01:37:15;3.37;;;1.80;;
4674;SDS011;2351;50.812;12.872;2023-07-31T01:39:47;6.40;;;1.63;;
4674;SDS011;2351;50.812;12.872;2023-07-31T01:42:20;4.97;;;1.90;;
4674;SDS011;2351;50.812;12.872;2023-07-31T01:44:52;2.03;;;1.53;;
4674;SDS011;2351;50.812;12.872;2023-07-31T01:47:24;3.53;;;1.83;;
4674;SDS011;2351;50.812;12.872;2023-07-31T01:49:55;9.37;;;1.60;;
4674;SDS011;2351;50.812;12.872;2023-07-31T01:52:27;2.17;;;1.70;;
4674;SDS011;2351;50.812;12.872;2023-07-31T01:55:00;3.53;;;1.60;;
4674;SDS011;2351;50.812;12.872;2023-07-31T01:57:33;1.77;;;1.40;;
4674;SDS011;2351;50.812;12.872;2023-07-31T02:00:05;5.83;;;2.00;;
4674;SDS011;2351;50.812;12.872;2023-07-31T02:02:38;6.50;;;2.53;;
4674;SDS011;2351;50.812;12.872;2023-07-31T02:05:09;4.33;;;1.70;;
4674;SDS011;2351;50.812;12.872;2023-07-31T02:07:41;3.50;;;1.80;;
4674;SDS011;2351;50.812;12.872;2023-07-31T02:10:13;4.77;;;1.80;;
4674;SDS011;2351;50.812;12.872;2023-07-31T02:12:46;4.40;;;2.00;;
4674;SDS011;2351;50.812;12.872;2023-07-31T02:15:17;9.30;;;2.23;;
4674;SDS011;2351;50.812;12.872;2023-07-31T02:17:49;6.10;;;2.40;;
4674;SDS011;2351;50.812;12.872;2023-07-31T02:20:21;3.13;;;2.20;;
4674;SDS011;2351;50.812;12.872;2023-07-31T02:22:53;3.90;;;1.90;;
4674;SDS011;2351;50.812;12.872;2023-07-31T02:25:24;6.10;;;2.07;;
4674;SDS011;2351;50.812;12.872;2023-07-31T02:27:57;8.57;;;2.23;;
4674;SDS011;2351;50.812;12.872;2023-07-31T02:30:29;6.83;;;3.00;;
4674;SDS011;2351;50.812;12.872;2023-07-31T02:33:01;4.63;;;2.27;;
4674;SDS011;2351;50.812;12.872;2023-07-31T02:35:32;7.83;;;2.63;;
4674;SDS011;2351;50.812;12.872;2023-07-31T02:38:04;5.70;;;2.50;;
4674;SDS011;2351;50.812;12.872;2023-07-31T02:40:36;5.73;;;1.87;;
4674;SDS011;2351;50.812;12.872;2023-07-31T02:43:09;3.20;;;1.97;;
4674;SDS011;2351;50.812;12.872;2023-07-31T02:45:41;5.43;;;2.40;;
4674;SDS011;2351;50.812;12.872;2023-07-31T02:48:12;4.00;;;1.93;;
4674;SDS011;2351;50.812;12.872;2023-07-31T02:50:44;4.50;;;2.10;;
4674;SDS011;2351;50.812;12.872;2023-07-31T02:53:16;4.57;;;2.20;;
4674;SDS011;2351;50.812;12.872;2023-07-31T02:55:47;6.23;;;2.37;;
4674;SDS011;2351;50.812;12.872;2023-07-31T02:58:20;5.87;;;2.47;;
4674;SDS011;2351;50.812;12.872;2023-07-31T03:00:52;8.83;;;2.40;;
4674;SDS011;2351;50.812;12.872;2023-07-31T03:03:24;5.17;;;2.37;;
4674;SDS011;2351;50.812;12.872;2023-07-31T03:05:55;7.40;;;2.20;;
4674;SDS011;2351;50.812;12.872;2023-07-31T03:08:27;5.83;;;2.60;;
4674;SDS011;2351;50.812;12.872;2023-07-31T03:10:59;6.33;;;2.40;;
4674;SDS011;2351;50.812;12.872;2023-07-31T03:13:32;5.93;;;2.40;;
4674;SDS011;2351;50.812;12.872;2023-07-31T03:16:03;7.97;;;3.00;;
4674;SDS011;2351;50.812;12.872;2023-07-31T03:18:35;11.20;;;3.23;;
4674;SDS011;2351;50.812;12.872;2023-07-31T03:21:07;4.50;;;2.60;;
4674;SDS011;2351;50.812;12.872;2023-07-31T03:23:38;5.90;;;2.40;;
4674;SDS011;2351;50.812;12.872;2023-07-31T03:26:10;4.03;;;2.40;;
4674;SDS011;2351;50.812;12.872;2023-07-31T03:28:43;7.10;;;2.70;;
4674;SDS011;2351;50.812;12.872;2023-07-31T03:31:15;7.43;;;3.10;;
4674;SDS011;2351;50.812;12.872;2023-07-31T03:33:46;8.17;;;3.30;;
4674;SDS011;2351;50.812;12.872;2023-07-31T03:36:18;12.00;;;3.30;;
4674;SDS011;2351;50.812;12.872;2023-07-31T03:38:51;8.63;;;3.00;;
4674;SDS011;2351;50.812;12.872;2023-07-31T03:41:22;6.60;;;2.97;;
4674;SDS011;2351;50.812;12.872;2023-07-31T03:43:55;6.73;;;3.33;;
4674;SDS011;2351;50.812;12.872;2023-07-31T03:46:27;5.80;;;3.63;;
4674;SDS011;2351;50.812;12.872;2023-07-31T03:48:59;9.67;;;2.87;;
4674;SDS011;2351;50.812;12.872;2023-07-31T03:51:31;8.93;;;3.80;;
4674;SDS011;2351;50.812;12.872;2023-07-31T03:54:03;11.67;;;3.07;;
4674;SDS011;2351;50.812;12.872;2023-07-31T03:56:35;7.03;;;3.20;;
4674;SDS011;2351;50.812;12.872;2023-07-31T03:59:09;8.03;;;2.70;;
4674;SDS011;2351;50.812;12.872;2023-07-31T04:01:41;7.07;;;2.90;;
4674;SDS011;2351;50.812;12.872;2023-07-31T04:04:12;8.20;;;3.93;;
4674;SDS011;2351;50.812;12.872;2023-07-31T04:06:44;7.33;;;2.90;;
4674;SDS011;2351;50.812;12.872;2023-07-31T04:09:16;6.30;;;2.60;;
4674;SDS011;2351;50.812;12.872;2023-07-31T04:11:48;8.70;;;3.07;;
4674;SDS011;2351;50.812;12.872;2023-07-31T04:14:21;6.40;;;3.00;;
4674;SDS011;2351;50.812;12.872;2023-07-31T04:16:52;7.67;;;3.60;;
4674;SDS011;2351;50.812;12.872;2023-07-31T04:19:24;5.77;;;3.40;;
4674;SDS011;2351;50.812;12.872;2023-07-31T04:21:56;10.33;;;3.20;;
4674;SDS011;2351;50.812;12.872;2023-07-31T04:24:28;6.20;;;3.10;;
4674;SDS011;2351;50.812;12.872;2023-07-31T04:26:59;4.87;;;2.73;;
4674;SDS011;2351;50.812;12.872;2023-07-31T04:29:32;5.30;;;3.23;;
4674;SDS011;2351;50.812;12.872;2023-07-31T04:32:05;8.80;;;3.50;;
4674;SDS011;2351;50.812;12.872;2023-07-31T04:34:37;4.80;;;3.00;;
4674;SDS011;2351;50.812;12.872;2023-07-31T04:37:09;7.83;;;3.27;;
4674;SDS011;2351;50.812;12.872;2023-07-31T04:39:40;5.40;;;2.97;;
4674;SDS011;2351;50.812;12.872;2023-07-31T04:42:12;10.27;;;4.13;;
4674;SDS011;2351;50.812;12.872;2023-07-31T04:44:45;9.53;;;3.20;;
4674;SDS011;2351;50.812;12.872;2023-07-31T04:47:17;6.70;;;3.07;;
4674;SDS011;2351;50.812;12.872;2023-07-31T04:49:49;15.67;;;4.13;;
4674;SDS011;2351;50.812;12.872;2023-07-31T04:52:20;13.20;;;3.23;;
4674;SDS011;2351;50.812;12.872;2023-07-31T04:54:52;6.10;;;3.73;;
4674;SDS011;2351;50.812;12.872;2023-07-31T04:57:24;6.83;;;3.23;;
4674;SDS011;2351;50.812;12.872;2023-07-31T04:59:57;6.37;;;2.70;;
4674;SDS011;2351;50.812;12.872;2023-07-31T05:02:28;5.00;;;2.53;;
4674;SDS011;2351;50.812;12.872;2023-07-31T05:05:00;7.87;;;2.87;;
4674;SDS011;2351;50.812;12.872;2023-07-31T05:07:32;10.30;;;3.53;;
4674;SDS011;2351;50.812;12.872;2023-07-31T05:10:04;10.40;;;3.73;;
4674;SDS011;2351;50.812;12.872;2023-07-31T05:12:36;11.23;;;3.17;;
4674;SDS011;2351;50.812;12.872;2023-07-31T05:15:09;10.03;;;3.70;;
4674;SDS011;2351;50.812;12.872;2023-07-31T05:17:41;8.30;;;3.30;;
4674;SDS011;2351;50.812;12.872;2023-07-31T05:20:13;9.77;;;3.10;;
4674;SDS011;2351;50.812;12.872;2023-07-31T05:22:45;12.70;;;3.00;;
4674;SDS011;2351;50.812;12.872;2023-07-31T05:25:17;6.60;;;2.77;;
4674;SDS011;2351;50.812;12.872;2023-07-31T05:27:48;4.27;;;2.87;;
4674;SDS011;2351;50.812;12.872;2023-07-31T05:30:21;8.93;;;2.83;;
4674;SDS011;2351;50.812;12.872;2023-07-31T05:32:53;5.93;;;3.20;;
4674;SDS011;2351;50.812;12.872;2023-07-31T05:35:25;8.87;;;2.90;;
4674;SDS011;2351;50.812;12.872;2023-07-31T05:37:56;6.33;;;2.80;;
4674;SDS011;2351;50.812;12.872;2023-07-31T05:40:28;6.30;;;3.33;;
4674;SDS011;2351;50.812;12.872;2023-07-31T05:43:03;6.30;;;2.43;;
4674;SDS011;2351;50.812;12.872;2023-07-31T05:45:38;7.53;;;3.30;;
4674;SDS011;2351;50.812;12.872;2023-07-31T05:48:10;6.30;;;3.43;;
4674;SDS011;2351;50.812;12.872;2023-07-31T05:50:42;6.70;;;3.30;;
4674;SDS011;2351;50.812;12.872;2023-07-31T05:53:14;3.67;;;2.57;;
4674;SDS011;2351;50.812;12.872;2023-07-31T05:55:46;14.17;;;3.00;;
4674;SDS011;2351;50.812;12.872;2023-07-31T05:58:17;9.27;;;3.70;;
4674;SDS011;2351;50.812;12.872;2023-07-31T06:00:50;8.90;;;3.70;;
4674;SDS011;2351;50.812;12.872;2023-07-31T06:03:22;15.90;;;2.70;;
4674;SDS011;2351;50.812;12.872;2023-07-31T06:05:54;7.87;;;3.50;;
4674;SDS011;2351;50.812;12.872;2023-07-31T06:08:26;5.57;;;2.63;;
4674;SDS011;2351;50.812;12.872;2023-07-31T06:10:58;6.17;;;3.47;;
4674;SDS011;2351;50.812;12.872;2023-07-31T06:13:29;5.83;;;2.60;;
4674;SDS011;2351;50.812;12.872;2023-07-31T06:16:02;7.10;;;3.03;;
4674;SDS011;2351;50.812;12.872;2023-07-31T06:18:36;9.93;;;3.70;;
4674;SDS011;2351;50.812;12.872;2023-07-31T06:21:09;8.23;;;2.67;;
4674;SDS011;2351;50.812;12.872;2023-07-31T06:23:40;7.00;;;3.47;;
4674;SDS011;2351;50.812;12.872;2023-07-31T06:26:12;4.33;;;2.63;;
4674;SDS011;2351;50.812;12.872;2023-07-31T06:28:44;3.37;;;2.33;;
4674;SDS011;2351;50.812;12.872;2023-07-31T06:31:18;6.43;;;2.73;;
4674;SDS011;2351;50.812;12.872;2023-07-31T06:33:52;10.10;;;3.10;;
4674;SDS011;2351;50.812;12.872;2023-07-31T06:36:25;3.83;;;2.90;;
4674;SDS011;2351;50.812;12.872;2023-07-31T06:38:56;6.20;;;3.17;;
4674;SDS011;2351;50.812;12.872;2023-07-31T06:41:28;9.00;;;2.87;;
4674;SDS011;2351;50.812;12.872;2023-07-31T06:44:00;9.00;;;3.20;;
4674;SDS011;2351;50.812;12.872;2023-07-31T06:46:33;5.80;;;2.90;;
4674;SDS011;2351;50.812;12.872;2023-07-31T06:49:05;6.97;;;2.97;;
4674;SDS011;2351;50.812;12.872;2023-07-31T06:51:36;4.37;;;3.03;;
4674;SDS011;2351;50.812;12.872;2023-07-31T06:54:08;6.40;;;3.00;;
4674;SDS011;2351;50.812;12.872;2023-07-31T06:56:40;3.40;;;2.30;;
4674;SDS011;2351;50.812;12.872;2023-07-31T06:59:12;7.27;;;2.70;;
4674;SDS011;2351;50.812;12.872;2023-07-31T07:01:45;3.77;;;2.87;;
4674;SDS011;2351;50.812;12.872;2023-07-31T07:04:17;6.40;;;3.10;;
4674;SDS011;2351;50.812;12.872;2023-07-31T07:06:48;8.20;;;2.90;;
4674;SDS011;2351;50.812;12.872;2023-07-31T07:09:20;4.60;;;2.20;;
4674;SDS011;2351;50.812;12.872;2023-07-31T07:11:52;7.90;;;2.80;;
4674;SDS011;2351;50.812;12.872;2023-07-31T07:14:23;4.40;;;2.10;;
4674;SDS011;2351;50.812;12.872;2023-07-31T07:16:56;5.10;;;2.80;;
4674;SDS011;2351;50.812;12.872;2023-07-31T07:19:28;7.80;;;2.80;;
4674;SDS011;2351;50.812;12.872;2023-07-31T07:22:00;2.97;;;2.30;;
4674;SDS011;2351;50.812;12.872;2023-07-31T07:24:32;3.83;;;2.60;;
4674;SDS011;2351;50.812;12.872;2023-07-31T07:27:04;8.47;;;3.00;;
4674;SDS011;2351;50.812;12.872;2023-07-31T07:29:37;7.00;;;2.73;;
4674;SDS011;2351;50.812;12.872;2023-07-31T07:32:10;5.27;;;2.40;;
4674;SDS011;2351;50.812;12.872;2023-07-31T07:34:42;8.00;;;2.90;;
4674;SDS011;2351;50.812;12.872;2023-07-31T07:37:14;14.27;;;3.00;;
4674;SDS011;2351;50.812;12.872;2023-07-31T07:39:46;5.63;;;2.50;;
4674;SDS011;2351;50.812;12.872;2023-07-31T07:42:18;5.13;;;2.70;;
4674;SDS011;2351;50.812;12.872;2023-07-31T07:44:49;4.00;;;2.60;;
4674;SDS011;2351;50.812;12.872;2023-07-31T07:47:22;2.87;;;2.43;;
4674;SDS011;2351;50.812;12.872;2023-07-31T07:49:54;7.03;;;2.43;;
4674;SDS011;2351;50.812;12.872;2023-07-31T07:52:26;5.93;;;2.53;;
4674;SDS011;2351;50.812;12.872;2023-07-31T07:54:57;6.20;;;2.53;;
4674;SDS011;2351;50.812;12.872;2023-07-31T07:57:30;4.73;;;2.70;;
4674;SDS011;2351;50.812;12.872;2023-07-31T08:00:02;4.93;;;2.80;;
4674;SDS011;2351;50.812;12.872;2023-07-31T08:02:35;5.13;;;2.67;;
4674;SDS011;2351;50.812;12.872;2023-07-31T08:05:07;5.80;;;2.73;;
4674;SDS011;2351;50.812;12.872;2023-07-31T08:07:39;3.47;;;2.23;;
4674;SDS011;2351;50.812;12.872;2023-07-31T08:10:11;8.73;;;3.00;;
4674;SDS011;2351;50.812;12.872;2023-07-31T08:12:43;8.77;;;3.17;;
4674;SDS011;2351;50.812;12.872;2023-07-31T08:15:14;5.60;;;2.60;;
4674;SDS011;2351;50.812;12.872;2023-07-31T08:17:48;3.37;;;2.20;;
4674;SDS011;2351;50.812;12.872;2023-07-31T08:20:19;8.90;;;2.60;;
4674;SDS011;2351;50.812;12.872;2023-07-31T08:22:51;8.60;;;3.03;;
4674;SDS011;2351;50.812;12.872;2023-07-31T08:25:23;11.60;;;2.60;;
4674;SDS011;2351;50.812;12.872;2023-07-31T08:27:54;4.90;;;3.30;;
4674;SDS011;2351;50.812;12.872;2023-07-31T08:30:26;6.50;;;2.73;;
4674;SDS011;2351;50.812;12.872;2023-07-31T08:32:59;6.77;;;2.90;;
4674;SDS011;2351;50.812;12.872;2023-07-31T08:35:31;8.13;;;3.07;;
4674;SDS011;2351;50.812;12.872;2023-07-31T08:38:03;7.40;;;2.67;;
4674;SDS011;2351;50.812;12.872;2023-07-31T08:40:35;7.07;;;3.07;;
4674;SDS011;2351;50.812;12.872;2023-07-31T08:43:08;8.60;;;3.70;;
4674;SDS011;2351;50.812;12.872;2023-07-31T08:45:41;7.40;;;3.00;;
4674;SDS011;2351;50.812;12.872;2023-07-31T08:48:15;36.47;;;3.33;;
4674;SDS011;2351;50.812;12.872;2023-07-31T08:50:48;7.07;;;3.50;;
4674;SDS011;2351;50.812;12.872;2023-07-31T08:53:20;4.60;;;3.00;;
4674;SDS011;2351;50.812;12.872;2023-07-31T08:55:53;6.73;;;2.80;;
4674;SDS011;2351;50.812;12.872;2023-07-31T08:58:25;4.13;;;2.93;;
4674;SDS011;2351;50.812;12.872;2023-07-31T09:01:00;4.90;;;2.60;;
4674;SDS011;2351;50.812;12.872;2023-07-31T09:03:35;7.97;;;3.13;;
4674;SDS011;2351;50.812;12.872;2023-07-31T09:06:08;8.67;;;2.93;;
4674;SDS011;2351;50.812;12.872;2023-07-31T09:08:41;11.57;;;2.60;;
4674;SDS011;2351;50.812;12.872;2023-07-31T09:14:10;10.10;;;2.67;;
4674;SDS011;2351;50.812;12.872;2023-07-31T09:16:51;7.20;;;3.17;;
4674;SDS011;2351;50.812;12.872;2023-07-31T09:19:29;5.17;;;2.73;;
4674;SDS011;2351;50.812;12.872;2023-07-31T09:22:04;7.50;;;3.00;;
4674;SDS011;2351;50.812;12.872;2023-07-31T09:24:36;6.30;;;2.70;;
4674;SDS011;2351;50.812;12.872;2023-07-31T09:27:08;4.60;;;2.57;;
4674;SDS011;2351;50.812;12.872;2023-07-31T09:29:39;3.03;;;2.33;;
4674;SDS011;2351;50.812;12.872;2023-07-31T09:32:15;3.73;;;2.87;;
4674;SDS011;2351;50.812;12.872;2023-07-31T09:34:48;3.50;;;2.30;;
4674;SDS011;2351;50.812;12.872;2023-07-31T09:37:20;4.80;;;2.47;;
4674;SDS011;2351;50.812;12.872;2023-07-31T09:39:52;4.33;;;2.43;;
4674;SDS011;2351;50.812;12.872;2023-07-31T09:42:28;5.50;;;2.87;;
4674;SDS011;2351;50.812;12.872;2023-07-31T09:45:08;4.00;;;2.60;;
4674;SDS011;2351;50.812;12.872;2023-07-31T09:47:44;7.20;;;2.80;;
4674;SDS011;2351;50.812;12.872;2023-07-31T09:50:19;7.83;;;3.00;;
4674;SDS011;2351;50.812;12.872;2023-07-31T09:52:51;2.60;;;2.40;;
4674;SDS011;2351;50.812;12.872;2023-07-31T09:55:23;4.43;;;2.40;;
4674;SDS011;2351;50.812;12.872;2023-07-31T09:57:56;5.40;;;2.80;;
4674;SDS011;2351;50.812;12.872;2023-07-31T10:00:29;3.20;;;2.20;;
4674;SDS011;2351;50.812;12.872;2023-07-31T10:03:03;3.13;;;1.67;;
4674;SDS011;2351;50.812;12.872;2023-07-31T10:05:38;6.83;;;2.40;;
4674;SDS011;2351;50.812;12.872;2023-07-31T10:08:13;3.13;;;1.90;;
4674;SDS011;2351;50.812;12.872;2023-07-31T10:10:46;8.80;;;2.90;;
4674;SDS011;2351;50.812;12.872;2023-07-31T10:13:18;5.77;;;2.70;;
4674;SDS011;2351;50.812;12.872;2023-07-31T10:15:52;5.23;;;2.03;;
4674;SDS011;2351;50.812;12.872;2023-07-31T10:18:24;4.17;;;1.97;;
4674;SDS011;2351;50.812;12.872;2023-07-31T10:20:58;2.40;;;2.07;;
4674;SDS011;2351;50.812;12.872;2023-07-31T10:23:30;6.17;;;2.70;;
4674;SDS011;2351;50.812;12.872;2023-07-31T10:26:02;3.73;;;2.03;;
4674;SDS011;2351;50.812;12.872;2023-07-31T10:28:35;5.03;;;2.27;;
4674;SDS011;2351;50.812;12.872;2023-07-31T10:31:08;6.10;;;2.40;;
4674;SDS011;2351;50.812;12.872;2023-07-31T10:33:40;5.13;;;2.23;;
4674;SDS011;2351;50.812;12.872;2023-07-31T10:36:14;4.63;;;1.97;;
4674;SDS011;2351;50.812;12.872;2023-07-31T10:38:48;2.60;;;2.40;;
4674;SDS011;2351;50.812;12.872;2023-07-31T10:41:24;5.43;;;2.90;;
4674;SDS011;2351;50.812;12.872;2023-07-31T10:44:01;2.33;;;2.13;;
4674;SDS011;2351;50.812;12.872;2023-07-31T10:46:33;8.40;;;2.83;;
4674;SDS011;2351;50.812;12.872;2023-07-31T10:49:04;4.33;;;2.27;;
4674;SDS011;2351;50.812;12.872;2023-07-31T10:51:38;4.30;;;2.13;;
4674;SDS011;2351;50.812;12.872;2023-07-31T10:54:12;9.53;;;2.60;;
4674;SDS011;2351;50.812;12.872;2023-07-31T10:56:45;2.33;;;2.13;;
4674;SDS011;2351;50.812;12.872;2023-07-31T10:59:17;10.20;;;2.10;;
4674;SDS011;2351;50.812;12.872;2023-07-31T11:01:50;6.50;;;2.53;;
4674;SDS011;2351;50.812;12.872;2023-07-31T11:04:22;5.33;;;2.73;;
4674;SDS011;2351;50.812;12.872;2023-07-31T11:06:57;3.40;;;2.13;;
4674;SDS011;2351;50.812;12.872;2023-07-31T11:09:30;2.53;;;2.30;;
4674;SDS011;2351;50.812;12.872;2023-07-31T11:12:04;4.30;;;1.80;;
4674;SDS011;2351;50.812;12.872;2023-07-31T11:14:36;5.10;;;1.70;;
4674;SDS011;2351;50.812;12.872;2023-07-31T11:17:07;3.50;;;1.77;;
4674;SDS011;2351;50.812;12.872;2023-07-31T11:19:39;4.30;;;2.20;;
4674;SDS011;2351;50.812;12.872;2023-07-31T11:22:12;2.87;;;1.90;;
4674;SDS011;2351;50.812;12.872;2023-07-31T11:24:45;4.40;;;2.37;;
4674;SDS011;2351;50.812;12.872;2023-07-31T11:27:16;7.87;;;2.80;;
4674;SDS011;2351;50.812;12.872;2023-07-31T11:29:50;4.77;;;1.97;;
4674;SDS011;2351;50.812;12.872;2023-07-31T11:32:22;7.10;;;2.47;;
4674;SDS011;2351;50.812;12.872;2023-07-31T11:34:54;3.50;;;2.30;;
4674;SDS011;2351;50.812;12.872;2023-07-31T11:37:39;5.30;;;2.33;;
4674;SDS011;2351;50.812;12.872;2023-07-31T11:40:11;4.30;;;2.57;;
4674;SDS011;2351;50.812;12.872;2023-07-31T11:42:43;7.33;;;2.27;;
4674;SDS011;2351;50.812;12.872;2023-07-31T11:45:15;7.00;;;2.03;;
4674;SDS011;2351;50.812;12.872;2023-07-31T11:47:47;5.63;;;2.30;;
4674;SDS011;2351;50.812;12.872;2023-07-31T11:50:19;2.37;;;2.17;;
4674;SDS011;2351;50.812;12.872;2023-07-31T11:52:52;4.23;;;2.40;;
4674;SDS011;2351;50.812;12.872;2023-07-31T11:55:27;4.30;;;2.10;;
4674;SDS011;2351;50.812;12.872;2023-07-31T11:57:59;5.63;;;2.17;;
4674;SDS011;2351;50.812;12.872;2023-07-31T12:00:31;5.60;;;2.77;;
4674;SDS011;2351;50.812;12.872;2023-07-31T12:03:03;3.20;;;2.20;;
4674;SDS011;2351;50.812;12.872;2023-07-31T12:05:36;2.90;;;2.07;;
4674;SDS011;2351;50.812;12.872;2023-07-31T12:08:10;3.57;;;2.37;;
4674;SDS011;2351;50.812;12.872;2023-07-31T12:10:43;4.17;;;2.40;;
4674;SDS011;2351;50.812;12.872;2023-07-31T12:13:19;4.37;;;2.17;;
4674;SDS011;2351;50.812;12.872;2023-07-31T12:15:54;5.40;;;2.17;;
4674;SDS011;2351;50.812;12.872;2023-07-31T12:18:27;7.03;;;2.07;;
4674;SDS011;2351;50.812;12.872;2023-07-31T12:21:00;2.47;;;1.90;;
4674;SDS011;2351;50.812;12.872;2023-07-31T12:23:35;3.50;;;2.00;;
4674;SDS011;2351;50.812;12.872;2023-07-31T12:26:08;3.23;;;2.50;;
4674;SDS011;2351;50.812;12.872;2023-07-31T12:28:41;4.47;;;1.97;;
4674;SDS011;2351;50.812;12.872;2023-07-31T12:31:14;8.23;;;3.83;;
4674;SDS011;2351;50.812;12.872;2023-07-31T12:33:48;5.20;;;2.33;;
4674;SDS011;2351;50.812;12.872;2023-07-31T12:36:21;3.00;;;2.47;;
4674;SDS011;2351;50.812;12.872;2023-07-31T12:38:55;6.53;;;2.83;;
4674;SDS011;2351;50.812;12.872;2023-07-31T12:41:28;11.13;;;2.43;;
4674;SDS011;2351;50.812;12.872;2023-07-31T12:44:00;6.93;;;2.10;;
4674;SDS011;2351;50.812;12.872;2023-07-31T12:46:33;4.20;;;2.40;;
4674;SDS011;2351;50.812;12.872;2023-07-31T12:49:05;5.00;;;2.10;;
4674;SDS011;2351;50.812;12.872;2023-07-31T12:51:36;2.13;;;1.93;;
4674;SDS011;2351;50.812;12.872;2023-07-31T12:54:09;9.50;;;2.47;;
4674;SDS011;2351;50.812;12.872;2023-07-31T12:56:41;8.80;;;2.27;;
4674;SDS011;2351;50.812;12.872;2023-07-31T12:59:13;5.23;;;2.10;;
4674;SDS011;2351;50.812;12.872;2023-07-31T13:01:45;6.30;;;1.90;;
4674;SDS011;2351;50.812;12.872;2023-07-31T13:04:17;4.97;;;1.97;;
4674;SDS011;2351;50.812;12.872;2023-07-31T13:06:49;3.83;;;2.43;;
4674;SDS011;2351;50.812;12.872;2023-07-31T13:09:22;8.60;;;2.27;;
4674;SDS011;2351;50.812;12.872;2023-07-31T13:11:53;5.53;;;2.20;;
4674;SDS011;2351;50.812;12.872;2023-07-31T13:14:25;3.17;;;2.30;;
4674;SDS011;2351;50.812;12.872;2023-07-31T13:16:57;8.10;;;2.40;;
4674;SDS011;2351;50.812;12.872;2023-07-31T13:19:29;4.93;;;2.20;;
4674;SDS011;2351;50.812;12.872;2023-07-31T13:22:00;5.70;;;2.30;;
4674;SDS011;2351;50.812;12.872;2023-07-31T13:24:34;3.93;;;2.43;;
4674;SDS011;2351;50.812;12.872;2023-07-31T13:27:05;3.73;;;2.23;;
4674;SDS011;2351;50.812;12.872;2023-07-31T13:29:37;5.13;;;2.57;;
4674;SDS011;2351;50.812;12.872;2023-07-31T13:32:09;3.00;;;2.10;;
4674;SDS011;2351;50.812;12.872;2023-07-31T13:34:40;4.13;;;2.60;;
4674;SDS011;2351;50.812;12.872;2023-07-31T13:37:12;5.73;;;2.40;;
4674;SDS011;2351;50.812;12.872;2023-07-31T13:39:45;2.23;;;2.03;;
4674;SDS011;2351;50.812;12.872;2023-07-31T13:42:17;4.00;;;1.70;;
4674;SDS011;2351;50.812;12.872;2023-07-31T13:44:49;3.70;;;2.13;;
4674;SDS011;2351;50.812;12.872;2023-07-31T13:47:21;7.87;;;2.33;;
4674;SDS011;2351;50.812;12.872;2023-07-31T13:49:52;4.43;;;2.20;;
4674;SDS011;2351;50.812;12.872;2023-07-31T13:52:24;3.27;;;1.90;;
4674;SDS011;2351;50.812;12.872;2023-07-31T13:54:57;8.93;;;2.27;;
4674;SDS011;2351;50.812;12.872;2023-07-31T13:57:29;4.07;;;2.00;;
4674;SDS011;2351;50.812;12.872;2023-07-31T14:00:00;2.17;;;1.97;;
4674;SDS011;2351;50.812;12.872;2023-07-31T14:02:32;3.37;;;2.50;;
4674;SDS011;2351;50.812;12.872;2023-07-31T14:05:04;5.40;;;2.30;;
4674;SDS011;2351;50.812;12.872;2023-07-31T14:07:37;4.30;;;2.17;;
4674;SDS011;2351;50.812;12.872;2023-07-31T14:10:10;2.43;;;2.23;;
4674;SDS011;2351;50.812;12.872;2023-07-31T14:12:42;6.80;;;2.23;;
4674;SDS011;2351;50.812;12.872;2023-07-31T14:15:13;4.73;;;2.40;;
4674;SDS011;2351;50.812;12.872;2023-07-31T14:17:45;3.80;;;2.30;;
4674;SDS011;2351;50.812;12.872;2023-07-31T14:20:17;4.73;;;2.50;;
4674;SDS011;2351;50.812;12.872;2023-07-31T14:22:49;7.23;;;2.60;;
4674;SDS011;2351;50.812;12.872;2023-07-31T14:25:22;2.47;;;1.97;;
4674;SDS011;2351;50.812;12.872;2023-07-31T14:27:53;3.50;;;1.90;;
4674;SDS011;2351;50.812;12.872;2023-07-31T14:30:25;3.03;;;2.20;;
4674;SDS011;2351;50.812;12.872;2023-07-31T14:32:57;4.80;;;2.17;;
4674;SDS011;2351;50.812;12.872;2023-07-31T14:35:30;6.90;;;2.07;;
4674;SDS011;2351;50.812;12.872;2023-07-31T14:38:02;4.07;;;2.40;;
4674;SDS011;2351;50.812;12.872;2023-07-31T14:40:35;5.30;;;1.70;;
4674;SDS011;2351;50.812;12.872;2023-07-31T14:43:08;4.80;;;3.07;;
4674;SDS011;2351;50.812;12.872;2023-07-31T14:45:40;2.83;;;2.43;;
4674;SDS011;2351;50.812;12.872;2023-07-31T14:48:12;3.10;;;1.90;;
4674;SDS011;2351;50.812;12.872;2023-07-31T14:50:44;4.20;;;2.10;;
4674;SDS011;2351;50.812;12.872;2023-07-31T14:53:15;2.47;;;1.83;;
4674;SDS011;2351;50.812;12.872;2023-07-31T14:55:48;4.67;;;2.63;;
4674;SDS011;2351;50.812;12.872;2023-07-31T14:58:20;2.63;;;1.90;;
4674;SDS011;2351;50.812;12.872;2023-07-31T15:00:53;7.27;;;3.10;;
4674;SDS011;2351;50.812;12.872;2023-07-31T15:03:24;4.80;;;2.33;;
4674;SDS011;2351;50.812;12.872;2023-07-31T15:05:56;4.57;;;2.17;;
4674;SDS011;2351;50.812;12.872;2023-07-31T15:08:28;3.17;;;2.20;;
4674;SDS011;2351;50.812;12.872;2023-07-31T15:11:01;2.90;;;2.03;;
4674;SDS011;2351;50.812;12.872;2023-07-31T15:13:32;3.70;;;2.37;;
4674;SDS011;2351;50.812;12.872;2023-07-31T15:16:04;6.37;;;2.23;;
4674;SDS011;2351;50.812;12.872;2023-07-31T15:18:36;2.50;;;2.00;;
4674;SDS011;2351;50.812;12.872;2023-07-31T15:21:08;3.10;;;2.13;;
4674;SDS011;2351;50.812;12.872;2023-07-31T15:23:40;16.43;;;2.53;;
4674;SDS011;2351;50.812;12.872;2023-07-31T15:26:13;9.77;;;3.03;;
4674;SDS011;2351;50.812;12.872;2023-07-31T15:28:47;3.30;;;2.70;;
4674;SDS011;2351;50.812;12.872;2023-07-31T15:31:21;3.30;;;2.40;;
4674;SDS011;2351;50.812;12.872;2023-07-31T15:33:53;2.30;;;2.10;;
4674;SDS011;2351;50.812;12.872;2023-07-31T15:36:25;6.13;;;2.97;;
4674;SDS011;2351;50.812;12.872;2023-07-31T15:38:57;5.90;;;2.90;;